Delphos, Iowa
Current Conditions -  °F | °C
As of 3:01 AM on Monday 24 Nov 2014 (Local Time) from KLWD Reporting Station
Overcast Overcast  
Wind Chill: 20°   Ceiling: 2300
Heat Index: 31°   Visibility: 10mi
Dew Point: 25°   Wind: 15mph
Humidity: 79%   Direction: 310°NW
Pressure: 29.44"   Gusts: NA
Location:  40.6052°N, 94.3576°W
Report Text: KLWD 240901Z AUTO 31013KT 10SM BKN023 OVC030 M01/M04 A2944 RMK AO2 T10061039
Loading
Personal Weather Stations






























Interactive Weather Map New forecast layout! Learn more

10-Day Weather Forecast

Advertisements
Track Severe Weather on mobile